sensor_id;sensor_type;location;lat;lon;timestamp;pressure;altitude;pressure_sealevel;temperature;humidity
65280;BME280;51878;55.748;48.742;2023-05-13T00:04:56;98872.13;;;9.63;79.03
65280;BME280;51878;55.748;48.742;2023-05-13T00:09:58;98873.28;;;9.54;82.97
65280;BME280;51878;55.748;48.742;2023-05-13T00:15:00;98879.28;;;9.49;82.52
65280;BME280;51878;55.748;48.742;2023-05-13T00:20:06;98836.50;;;9.16;83.88
65280;BME280;51878;55.748;48.742;2023-05-13T00:25:08;98826.69;;;9.08;83.33
65280;BME280;51878;55.748;48.742;2023-05-13T00:30:11;98861.50;;;9.18;86.42
65280;BME280;51878;55.748;48.742;2023-05-13T00:35:14;98828.53;;;8.86;90.23
65280;BME280;51878;55.748;48.742;2023-05-13T00:40:28;98880.84;;;9.15;89.87
65280;BME280;51878;55.748;48.742;2023-05-13T00:45:31;98851.22;;;8.92;90.22
65280;BME280;51878;55.748;48.742;2023-05-13T00:50:33;98866.88;;;8.97;89.53
65280;BME280;51878;55.748;48.742;2023-05-13T00:55:40;98887.38;;;9.06;89.72
65280;BME280;51878;55.748;48.742;2023-05-13T01:06:15;98875.03;;;8.82;100.00
65280;BME280;51878;55.748;48.742;2023-05-13T01:11:22;98909.13;;;8.98;100.00
65280;BME280;51878;55.748;48.742;2023-05-13T01:16:38;98891.59;;;8.94;100.00
65280;BME280;51878;55.748;48.742;2023-05-13T01:21:50;98873.19;;;8.82;100.00
65280;BME280;51878;55.748;48.742;2023-05-13T01:26:53;98899.97;;;8.99;100.00
65280;BME280;51878;55.748;48.742;2023-05-13T01:31:56;98838.72;;;8.69;100.00
65280;BME280;51878;55.748;48.742;2023-05-13T01:37:00;98777.47;;;8.25;100.00
65280;BME280;51878;55.748;48.742;2023-05-13T01:42:02;98894.66;;;9.05;100.00
65280;BME280;51878;55.748;48.742;2023-05-13T01:47:05;98910.84;;;9.20;100.00
65280;BME280;51878;55.748;48.742;2023-05-13T01:52:07;98904.44;;;9.28;100.00
65280;BME280;51878;55.748;48.742;2023-05-13T01:57:09;98806.94;;;8.72;100.00
65280;BME280;51878;55.748;48.742;2023-05-13T02:02:12;98844.03;;;8.99;100.00
65280;BME280;51878;55.748;48.742;2023-05-13T02:07:14;98835.97;;;9.06;100.00
65280;BME280;51878;55.748;48.742;2023-05-13T02:12:16;98913.47;;;9.57;100.00
65280;BME280;51878;55.748;48.742;2023-05-13T02:17:19;98889.00;;;9.43;100.00
65280;BME280;51878;55.748;48.742;2023-05-13T02:22:21;98906.34;;;9.70;100.00
65280;BME280;51878;55.748;48.742;2023-05-13T02:27:23;98792.72;;;9.06;100.00
65280;BME280;51878;55.748;48.742;2023-05-13T02:32:26;98902.53;;;9.86;100.00
65280;BME280;51878;55.748;48.742;2023-05-13T02:37:28;98847.38;;;9.66;100.00
65280;BME280;51878;55.748;48.742;2023-05-13T02:42:30;98803.34;;;9.50;100.00
65280;BME280;51878;55.748;48.742;2023-05-13T02:47:32;98891.94;;;10.20;99.27
65280;BME280;51878;55.748;48.742;2023-05-13T02:52:35;98867.56;;;10.20;98.94
65280;BME280;51878;55.748;48.742;2023-05-13T02:57:37;98912.81;;;10.54;98.76
65280;BME280;51878;55.748;48.742;2023-05-13T03:02:40;98920.84;;;10.75;97.45
65280;BME280;51878;55.748;48.742;2023-05-13T03:07:42;98878.59;;;10.53;97.65
65280;BME280;51878;55.748;48.742;2023-05-13T03:12:45;98929.28;;;10.94;96.79
65280;BME280;51878;55.748;48.742;2023-05-13T03:17:47;98870.38;;;10.74;96.39
65280;BME280;51878;55.748;48.742;2023-05-13T03:22:49;98856.78;;;10.68;96.83
65280;BME280;51878;55.748;48.742;2023-05-13T03:27:53;98877.34;;;10.97;96.41
65280;BME280;51878;55.748;48.742;2023-05-13T03:32:55;98903.09;;;11.21;93.87
65280;BME280;51878;55.748;48.742;2023-05-13T03:37:57;98949.34;;;11.68;92.68
65280;BME280;51878;55.748;48.742;2023-05-13T03:42:59;98874.72;;;11.37;90.31
65280;BME280;51878;55.748;48.742;2023-05-13T03:48:01;98893.97;;;11.49;87.54
65280;BME280;51878;55.748;48.742;2023-05-13T03:53:04;98941.00;;;11.83;88.29
65280;BME280;51878;55.748;48.742;2023-05-13T03:58:11;98945.22;;;12.12;87.24
65280;BME280;51878;55.748;48.742;2023-05-13T04:03:15;98910.53;;;12.20;85.59
65280;BME280;51878;55.748;48.742;2023-05-13T04:08:18;98937.25;;;12.50;83.02
65280;BME280;51878;55.748;48.742;2023-05-13T04:13:20;98951.00;;;12.82;82.33
65280;BME280;51878;55.748;48.742;2023-05-13T04:18:22;98928.75;;;12.92;80.88
65280;BME280;51878;55.748;48.742;2023-05-13T04:23:24;98794.91;;;12.25;78.88
65280;BME280;51878;55.748;48.742;2023-05-13T04:28:27;98951.84;;;13.41;77.96
65280;BME280;51878;55.748;48.742;2023-05-13T04:33:29;98910.63;;;13.31;75.06
65280;BME280;51878;55.748;48.742;2023-05-13T04:38:31;98911.13;;;13.53;73.71
65280;BME280;51878;55.748;48.742;2023-05-13T04:43:33;98926.88;;;13.82;74.10
65280;BME280;51878;55.748;48.742;2023-05-13T04:48:35;98789.66;;;13.13;69.49
65280;BME280;51878;55.748;48.742;2023-05-13T04:53:38;98881.81;;;14.05;68.42
65280;BME280;51878;55.748;48.742;2023-05-13T04:58:41;98885.25;;;14.19;66.48
65280;BME280;51878;55.748;48.742;2023-05-13T05:03:43;98929.09;;;14.86;65.14
65280;BME280;51878;55.748;48.742;2023-05-13T05:08:45;98945.06;;;15.01;62.41
65280;BME280;51878;55.748;48.742;2023-05-13T05:13:47;98922.41;;;15.00;61.42
65280;BME280;51878;55.748;48.742;2023-05-13T05:18:49;98888.06;;;14.93;61.57
65280;BME280;51878;55.748;48.742;2023-05-13T05:23:52;98947.63;;;15.33;57.99
65280;BME280;51878;55.748;48.742;2023-05-13T05:28:54;98976.59;;;15.52;58.29
65280;BME280;51878;55.748;48.742;2023-05-13T05:33:56;98856.44;;;14.85;56.23
65280;BME280;51878;55.748;48.742;2023-05-13T05:38:58;98942.25;;;15.56;56.05
65280;BME280;51878;55.748;48.742;2023-05-13T05:44:00;98860.91;;;15.28;55.27
65280;BME280;51878;55.748;48.742;2023-05-13T05:49:03;98855.41;;;15.58;53.13
65280;BME280;51878;55.748;48.742;2023-05-13T05:54:05;98883.69;;;16.18;51.63
65280;BME280;51878;55.748;48.742;2023-05-13T05:59:07;98896.53;;;16.52;48.99
65280;BME280;51878;55.748;48.742;2023-05-13T06:04:09;98960.78;;;16.97;47.73
65280;BME280;51878;55.748;48.742;2023-05-13T06:09:12;98875.81;;;16.68;48.36
65280;BME280;51878;55.748;48.742;2023-05-13T06:14:15;98967.91;;;17.62;46.85
65280;BME280;51878;55.748;48.742;2023-05-13T06:19:18;98925.25;;;17.83;46.85
65280;BME280;51878;55.748;48.742;2023-05-13T06:24:20;98957.63;;;18.32;44.94
65280;BME280;51878;55.748;48.742;2023-05-13T06:29:25;98963.94;;;18.49;45.16
65280;BME280;51878;55.748;48.742;2023-05-13T06:34:27;98958.13;;;18.79;44.53
65280;BME280;51878;55.748;48.742;2023-05-13T06:39:30;98819.06;;;17.95;42.03
65280;BME280;51878;55.748;48.742;2023-05-13T06:44:35;98968.94;;;18.86;41.85
65280;BME280;51878;55.748;48.742;2023-05-13T06:49:38;98886.59;;;18.35;40.85
65280;BME280;51878;55.748;48.742;2023-05-13T06:54:41;98960.78;;;19.35;41.08
65280;BME280;51878;55.748;48.742;2023-05-13T06:59:43;98946.97;;;19.74;39.53
65280;BME280;51878;55.748;48.742;2023-05-13T07:04:46;98861.22;;;19.06;39.23
65280;BME280;51878;55.748;48.742;2023-05-13T07:09:48;98921.22;;;19.64;38.54
65280;BME280;51878;55.748;48.742;2023-05-13T07:14:50;98940.41;;;20.08;38.31
65280;BME280;51878;55.748;48.742;2023-05-13T07:19:53;98896.06;;;20.04;37.21
65280;BME280;51878;55.748;48.742;2023-05-13T07:24:55;98903.47;;;20.03;36.50
65280;BME280;51878;55.748;48.742;2023-05-13T07:29:57;98926.56;;;20.35;36.67
65280;BME280;51878;55.748;48.742;2023-05-13T07:35:00;98953.03;;;20.68;37.24
65280;BME280;51878;55.748;48.742;2023-05-13T07:40:08;98847.13;;;21.01;34.71
65280;BME280;51878;55.748;48.742;2023-05-13T07:45:13;98866.59;;;21.63;34.24
65280;BME280;51878;55.748;48.742;2023-05-13T07:50:16;98907.50;;;22.38;32.90
65280;BME280;51878;55.748;48.742;2023-05-13T07:55:18;98879.56;;;21.57;33.80
65280;BME280;51878;55.748;48.742;2023-05-13T08:00:21;98924.13;;;21.29;35.13
65280;BME280;51878;55.748;48.742;2023-05-13T08:05:23;98921.03;;;22.65;33.76
65280;BME280;51878;55.748;48.742;2023-05-13T08:10:26;98876.53;;;22.61;32.59
65280;BME280;51878;55.748;48.742;2023-05-13T08:15:28;98931.47;;;22.94;31.01
65280;BME280;51878;55.748;48.742;2023-05-13T08:20:30;98937.03;;;22.17;32.61
65280;BME280;51878;55.748;48.742;2023-05-13T08:25:32;98926.22;;;22.87;31.26
65280;BME280;51878;55.748;48.742;2023-05-13T08:30:35;98867.16;;;22.11;31.27
65280;BME280;51878;55.748;48.742;2023-05-13T08:35:37;98871.59;;;22.12;31.57
65280;BME280;51878;55.748;48.742;2023-05-13T08:40:40;98872.63;;;22.67;31.67
65280;BME280;51878;55.748;48.742;2023-05-13T08:45:46;98926.47;;;23.11;30.51
65280;BME280;51878;55.748;48.742;2023-05-13T08:50:49;98882.13;;;23.26;28.41
65280;BME280;51878;55.748;48.742;2023-05-13T08:55:52;98801.59;;;23.28;27.70
65280;BME280;51878;55.748;48.742;2023-05-13T09:00:55;98886.69;;;23.51;27.62
65280;BME280;51878;55.748;48.742;2023-05-13T09:06:04;98883.69;;;22.78;29.41
65280;BME280;51878;55.748;48.742;2023-05-13T09:11:07;98847.03;;;22.05;30.82
65280;BME280;51878;55.748;48.742;2023-05-13T09:16:10;98900.28;;;22.11;31.01
65280;BME280;51878;55.748;48.742;2023-05-13T09:21:31;98891.19;;;22.31;31.39
65280;BME280;51878;55.748;48.742;2023-05-13T09:26:35;98881.81;;;22.37;29.47
65280;BME280;51878;55.748;48.742;2023-05-13T09:31:38;98857.22;;;22.46;30.22
65280;BME280;51878;55.748;48.742;2023-05-13T09:36:43;98889.28;;;22.32;30.70
65280;BME280;51878;55.748;48.742;2023-05-13T09:41:45;98839.56;;;21.75;31.32
65280;BME280;51878;55.748;48.742;2023-05-13T09:46:52;98905.28;;;22.04;32.51
65280;BME280;51878;55.748;48.742;2023-05-13T09:51:57;98872.41;;;21.72;32.66
65280;BME280;51878;55.748;48.742;2023-05-13T09:57:03;98815.75;;;21.33;31.44
65280;BME280;51878;55.748;48.742;2023-05-13T10:02:07;98889.78;;;21.82;30.56
65280;BME280;51878;55.748;48.742;2023-05-13T10:07:10;98879.59;;;21.98;31.86
65280;BME280;51878;55.748;48.742;2023-05-13T10:12:19;98725.06;;;21.42;31.98
65280;BME280;51878;55.748;48.742;2023-05-13T10:17:23;98870.34;;;22.95;30.48
65280;BME280;51878;55.748;48.742;2023-05-13T10:22:30;98835.88;;;23.37;29.34
65280;BME280;51878;55.748;48.742;2023-05-13T10:27:33;98891.63;;;23.55;29.18
65280;BME280;51878;55.748;48.742;2023-05-13T10:32:37;98882.09;;;24.16;28.74
65280;BME280;51878;55.748;48.742;2023-05-13T10:38:15;98902.94;;;24.95;26.97
65280;BME280;51878;55.748;48.742;2023-05-13T10:48:38;98850.16;;;28.71;23.44
65280;BME280;51878;55.748;48.742;2023-05-13T10:53:49;98750.06;;;30.00;21.55
65280;BME280;51878;55.748;48.742;2023-05-13T10:59:03;98863.22;;;30.02;21.50
65280;BME280;51878;55.748;48.742;2023-05-13T11:04:05;98730.66;;;30.03;20.06
65280;BME280;51878;55.748;48.742;2023-05-13T11:09:13;98872.25;;;29.64;20.64
65280;BME280;51878;55.748;48.742;2023-05-13T11:14:17;98878.03;;;28.62;21.63
65280;BME280;51878;55.748;48.742;2023-05-13T11:19:29;98817.84;;;27.34;22.12
65280;BME280;51878;55.748;48.742;2023-05-13T11:24:31;98842.47;;;25.97;24.05
65280;BME280;51878;55.748;48.742;2023-05-13T11:29:34;98865.94;;;25.86;24.37
65280;BME280;51878;55.748;48.742;2023-05-13T11:34:38;98774.50;;;24.28;25.71
65280;BME280;51878;55.748;48.742;2023-05-13T11:39:51;98832.91;;;24.31;27.18
65280;BME280;51878;55.748;48.742;2023-05-13T11:44:53;98842.28;;;23.77;29.06
65280;BME280;51878;55.748;48.742;2023-05-13T11:49:56;98790.56;;;22.63;29.58
65280;BME280;51878;55.748;48.742;2023-05-13T11:54:59;98802.81;;;22.36;29.38
65280;BME280;51878;55.748;48.742;2023-05-13T12:00:02;98891.72;;;22.69;29.17
65280;BME280;51878;55.748;48.742;2023-05-13T12:05:10;98862.69;;;22.61;29.01
65280;BME280;51878;55.748;48.742;2023-05-13T12:10:12;98802.56;;;21.97;30.68
65280;BME280;51878;55.748;48.742;2023-05-13T12:15:17;98828.78;;;21.53;32.19
65280;BME280;51878;55.748;48.742;2023-05-13T12:20:21;98891.41;;;21.53;33.78
65280;BME280;51878;55.748;48.742;2023-05-13T12:30:40;98825.88;;;21.07;34.61
65280;BME280;51878;55.748;48.742;2023-05-13T12:35:46;98820.88;;;20.89;34.60
65280;BME280;51878;55.748;48.742;2023-05-13T12:40:49;98861.72;;;21.02;35.07
65280;BME280;51878;55.748;48.742;2023-05-13T12:45:52;98806.06;;;20.47;35.25
65280;BME280;51878;55.748;48.742;2023-05-13T12:50:55;98866.28;;;20.76;35.89
65280;BME280;51878;55.748;48.742;2023-05-13T12:56:00;98845.66;;;20.83;36.36
65280;BME280;51878;55.748;48.742;2023-05-13T13:01:03;98839.06;;;20.90;36.22
65280;BME280;51878;55.748;48.742;2023-05-13T13:06:07;98804.66;;;20.97;35.99
65280;BME280;51878;55.748;48.742;2023-05-13T13:11:11;98866.03;;;22.58;34.48
65280;BME280;51878;55.748;48.742;2023-05-13T13:16:19;98768.38;;;23.33;32.71
65280;BME280;51878;55.748;48.742;2023-05-13T13:21:22;98817.94;;;26.32;29.75
65280;BME280;51878;55.748;48.742;2023-05-13T13:26:25;98804.09;;;28.51;26.28
65280;BME280;51878;55.748;48.742;2023-05-13T13:31:27;98830.97;;;29.35;24.14
65280;BME280;51878;55.748;48.742;2023-05-13T13:36:29;98834.97;;;28.54;24.24
65280;BME280;51878;55.748;48.742;2023-05-13T13:41:33;98841.88;;;26.61;26.39
65280;BME280;51878;55.748;48.742;2023-05-13T13:46:36;98808.22;;;25.83;27.15
65280;BME280;51878;55.748;48.742;2023-05-13T13:51:39;98855.22;;;25.23;27.41
65280;BME280;51878;55.748;48.742;2023-05-13T13:56:42;98758.78;;;23.55;28.24
65280;BME280;51878;55.748;48.742;2023-05-13T14:01:44;98871.06;;;23.21;30.83
65280;BME280;51878;55.748;48.742;2023-05-13T14:06:48;98847.81;;;22.11;32.63
65280;BME280;51878;55.748;48.742;2023-05-13T14:11:50;98825.19;;;20.69;37.95
65280;BME280;51878;55.748;48.742;2023-05-13T14:16:52;98932.16;;;20.45;39.75
65280;BME280;51878;55.748;48.742;2023-05-13T14:21:55;98897.16;;;19.49;40.99
65280;BME280;51878;55.748;48.742;2023-05-13T14:26:57;98912.78;;;18.99;41.74
65280;BME280;51878;55.748;48.742;2023-05-13T14:32:00;98964.94;;;18.94;42.48
65280;BME280;51878;55.748;48.742;2023-05-13T14:37:04;98933.84;;;18.21;44.03
65280;BME280;51878;55.748;48.742;2023-05-13T14:42:07;98888.31;;;17.74;44.24
65280;BME280;51878;55.748;48.742;2023-05-13T14:47:09;98899.00;;;17.42;46.12
65280;BME280;51878;55.748;48.742;2023-05-13T14:52:12;98960.88;;;17.54;46.53
65280;BME280;51878;55.748;48.742;2023-05-13T14:57:14;98905.88;;;17.04;50.72
65280;BME280;51878;55.748;48.742;2023-05-13T15:02:18;98883.91;;;16.75;52.77
65280;BME280;51878;55.748;48.742;2023-05-13T15:07:21;98903.44;;;16.55;59.82
65280;BME280;51878;55.748;48.742;2023-05-13T15:12:23;98965.19;;;16.74;60.94
65280;BME280;51878;55.748;48.742;2023-05-13T15:17:28;98960.47;;;16.58;61.57
65280;BME280;51878;55.748;48.742;2023-05-13T15:22:30;98792.06;;;15.49;62.03
65280;BME280;51878;55.748;48.742;2023-05-13T15:27:38;98923.91;;;16.29;61.83
65280;BME280;51878;55.748;48.742;2023-05-13T15:32:43;98900.59;;;16.15;61.16
65280;BME280;51878;55.748;48.742;2023-05-13T15:37:46;98855.69;;;15.68;61.66
65280;BME280;51878;55.748;48.742;2023-05-13T15:42:48;98821.78;;;15.58;60.32
65280;BME280;51878;55.748;48.742;2023-05-13T15:47:51;98940.69;;;16.32;59.75
65280;BME280;51878;55.748;48.742;2023-05-13T15:52:53;98894.53;;;16.01;59.42
65280;BME280;51878;55.748;48.742;2023-05-13T15:57:56;98880.09;;;15.94;58.59
65280;BME280;51878;55.748;48.742;2023-05-13T16:02:58;98882.50;;;16.02;57.63
65280;BME280;51878;55.748;48.742;2023-05-13T16:08:03;98885.56;;;15.94;57.88
65280;BME280;51878;55.748;48.742;2023-05-13T16:13:06;98873.91;;;15.75;57.91
65280;BME280;51878;55.748;48.742;2023-05-13T16:18:08;98930.31;;;15.99;58.63
65280;BME280;51878;55.748;48.742;2023-05-13T16:23:10;98897.44;;;15.76;57.95
65280;BME280;51878;55.748;48.742;2023-05-13T16:28:14;98954.81;;;16.06;57.91
65280;BME280;51878;55.748;48.742;2023-05-13T16:33:16;98849.19;;;15.39;57.88
65280;BME280;51878;55.748;48.742;2023-05-13T16:38:18;98909.47;;;15.56;59.05
65280;BME280;51878;55.748;48.742;2023-05-13T16:43:21;98982.06;;;15.82;59.53
65280;BME280;51878;55.748;48.742;2023-05-13T16:48:23;98977.91;;;15.80;59.50
65280;BME280;51878;55.748;48.742;2023-05-13T16:53:26;98903.50;;;15.17;61.54
65280;BME280;51878;55.748;48.742;2023-05-13T16:58:28;98997.72;;;15.26;66.24
65280;BME280;51878;55.748;48.742;2023-05-13T17:03:30;98991.13;;;14.97;67.05
65280;BME280;51878;55.748;48.742;2023-05-13T17:08:33;98789.53;;;13.65;68.02
65280;BME280;51878;55.748;48.742;2023-05-13T17:13:43;98963.63;;;14.74;68.21
65280;BME280;51878;55.748;48.742;2023-05-13T17:18:46;98974.78;;;14.72;69.80
65280;BME280;51878;55.748;48.742;2023-05-13T17:23:48;98927.47;;;14.35;70.61
65280;BME280;51878;55.748;48.742;2023-05-13T17:28:51;98890.59;;;14.07;72.00
65280;BME280;51878;55.748;48.742;2023-05-13T17:33:53;98952.97;;;14.47;72.65
65280;BME280;51878;55.748;48.742;2023-05-13T17:38:56;98977.78;;;14.39;74.48
65280;BME280;51878;55.748;48.742;2023-05-13T17:43:58;98990.97;;;14.17;78.35
65280;BME280;51878;55.748;48.742;2023-05-13T17:49:01;98856.38;;;13.22;80.45
65280;BME280;51878;55.748;48.742;2023-05-13T17:54:03;98910.50;;;13.51;81.21
65280;BME280;51878;55.748;48.742;2023-05-13T17:59:06;99026.50;;;14.03;83.24
65280;BME280;51878;55.748;48.742;2023-05-13T18:04:11;99041.56;;;14.06;82.60
65280;BME280;51878;55.748;48.742;2023-05-13T18:09:13;98962.22;;;13.57;81.44
65280;BME280;51878;55.748;48.742;2023-05-13T18:14:16;99019.72;;;13.81;80.84
65280;BME280;51878;55.748;48.742;2023-05-13T18:19:20;99038.38;;;13.77;82.10
65280;BME280;51878;55.748;48.742;2023-05-13T18:24:48;99034.09;;;13.56;84.13
65280;BME280;51878;55.748;48.742;2023-05-13T18:29:57;98968.97;;;12.96;87.09
65280;BME280;51878;55.748;48.742;2023-05-13T18:35:00;98988.84;;;12.90;88.46
65280;BME280;51878;55.748;48.742;2023-05-13T18:40:05;99046.31;;;13.20;88.67
65280;BME280;51878;55.748;48.742;2023-05-13T18:45:10;99049.47;;;13.24;89.23
65280;BME280;51878;55.748;48.742;2023-05-13T18:50:13;98915.56;;;12.24;91.39
65280;BME280;51878;55.748;48.742;2023-05-13T18:55:16;99067.75;;;13.03;92.71
65280;BME280;51878;55.748;48.742;2023-05-13T19:00:18;98987.66;;;12.46;94.18
65280;BME280;51878;55.748;48.742;2023-05-13T19:05:21;98995.41;;;12.49;95.77
65280;BME280;51878;55.748;48.742;2023-05-13T19:10:23;99065.22;;;12.95;95.97
65280;BME280;51878;55.748;48.742;2023-05-13T19:15:25;98924.75;;;12.16;97.20
65280;BME280;51878;55.748;48.742;2023-05-13T19:20:28;98810.22;;;11.52;97.50
65280;BME280;51878;55.748;48.742;2023-05-13T19:25:31;98986.41;;;12.62;100.00
65280;BME280;51878;55.748;48.742;2023-05-13T19:30:36;98975.53;;;12.55;100.00
65280;BME280;51878;55.748;48.742;2023-05-13T19:35:42;99043.91;;;12.99;100.00
65280;BME280;51878;55.748;48.742;2023-05-13T19:40:51;98820.88;;;11.61;100.00
65280;BME280;51878;55.748;48.742;2023-05-13T19:45:57;99031.94;;;13.00;100.00
65280;BME280;51878;55.748;48.742;2023-05-13T19:51:00;99008.75;;;12.84;100.00
65280;BME280;51878;55.748;48.742;2023-05-13T19:56:03;98955.22;;;12.58;100.00
65280;BME280;51878;55.748;48.742;2023-05-13T20:01:05;98994.72;;;12.74;100.00
65280;BME280;51878;55.748;48.742;2023-05-13T20:06:07;99016.94;;;12.71;100.00
65280;BME280;51878;55.748;48.742;2023-05-13T20:11:09;98973.66;;;12.36;100.00
65280;BME280;51878;55.748;48.742;2023-05-13T20:16:12;99057.72;;;12.71;100.00
65280;BME280;51878;55.748;48.742;2023-05-13T20:21:14;98983.72;;;12.15;100.00
65280;BME280;51878;55.748;48.742;2023-05-13T20:26:17;98918.19;;;11.64;100.00
65280;BME280;51878;55.748;48.742;2023-05-13T20:31:19;99010.69;;;12.17;100.00
65280;BME280;51878;55.748;48.742;2023-05-13T20:36:21;98903.16;;;11.48;100.00
65280;BME280;51878;55.748;48.742;2023-05-13T20:41:24;99043.31;;;12.24;100.00
65280;BME280;51878;55.748;48.742;2023-05-13T20:46:28;99049.56;;;12.17;100.00
65280;BME280;51878;55.748;48.742;2023-05-13T20:51:30;98838.72;;;10.88;100.00
65280;BME280;51878;55.748;48.742;2023-05-13T20:56:33;98843.09;;;10.83;100.00
65280;BME280;51878;55.748;48.742;2023-05-13T21:01:35;99002.22;;;11.85;100.00
65280;BME280;51878;55.748;48.742;2023-05-13T21:06:37;99038.25;;;12.01;100.00
65280;BME280;51878;55.748;48.742;2023-05-13T21:11:40;98971.66;;;11.56;100.00
65280;BME280;51878;55.748;48.742;2023-05-13T21:16:42;99032.38;;;11.97;100.00
65280;BME280;51878;55.748;48.742;2023-05-13T21:21:44;99034.06;;;11.98;100.00
65280;BME280;51878;55.748;48.742;2023-05-13T21:26:46;98912.91;;;11.22;100.00
65280;BME280;51878;55.748;48.742;2023-05-13T21:31:49;98990.47;;;11.58;100.00
65280;BME280;51878;55.748;48.742;2023-05-13T21:36:52;98947.59;;;11.27;100.00
65280;BME280;51878;55.748;48.742;2023-05-13T21:41:54;99046.75;;;11.84;100.00
65280;BME280;51878;55.748;48.742;2023-05-13T21:46:56;99028.72;;;11.70;100.00
65280;BME280;51878;55.748;48.742;2023-05-13T21:51:58;98975.97;;;11.37;100.00
65280;BME280;51878;55.748;48.742;2023-05-13T21:57:01;98897.09;;;10.84;100.00
65280;BME280;51878;55.748;48.742;2023-05-13T22:02:03;98967.56;;;11.19;100.00
65280;BME280;51878;55.748;48.742;2023-05-13T22:07:05;98966.09;;;11.10;100.00
65280;BME280;51878;55.748;48.742;2023-05-13T22:12:07;98979.47;;;11.11;100.00
65280;BME280;51878;55.748;48.742;2023-05-13T22:17:10;99020.25;;;11.31;100.00
65280;BME280;51878;55.748;48.742;2023-05-13T22:22:12;98845.84;;;10.13;100.00
65280;BME280;51878;55.748;48.742;2023-05-13T22:27:15;99067.00;;;11.27;100.00
65280;BME280;51878;55.748;48.742;2023-05-13T22:32:17;99062.69;;;11.11;100.00
65280;BME280;51878;55.748;48.742;2023-05-13T22:37:19;99064.94;;;11.01;100.00
65280;BME280;51878;55.748;48.742;2023-05-13T22:42:23;98855.03;;;9.62;100.00
65280;BME280;51878;55.748;48.742;2023-05-13T22:47:25;99051.59;;;10.71;100.00
65280;BME280;51878;55.748;48.742;2023-05-13T22:52:27;99007.28;;;10.29;100.00
65280;BME280;51878;55.748;48.742;2023-05-13T22:57:29;99068.41;;;10.60;100.00
65280;BME280;51878;55.748;48.742;2023-05-13T23:02:32;98981.63;;;9.82;100.00
65280;BME280;51878;55.748;48.742;2023-05-13T23:07:34;98829.53;;;8.85;100.00
65280;BME280;51878;55.748;48.742;2023-05-13T23:12:36;98990.75;;;9.81;100.00
65280;BME280;51878;55.748;48.742;2023-05-13T23:17:38;99050.81;;;10.06;100.00
65280;BME280;51878;55.748;48.742;2023-05-13T23:22:41;99009.66;;;9.74;100.00
65280;BME280;51878;55.748;48.742;2023-05-13T23:27:43;98987.19;;;9.59;100.00
65280;BME280;51878;55.748;48.742;2023-05-13T23:32:45;99045.03;;;9.94;100.00
65280;BME280;51878;55.748;48.742;2023-05-13T23:37:47;99056.81;;;10.01;100.00
65280;BME280;51878;55.748;48.742;2023-05-13T23:42:50;99055.75;;;10.02;100.00
65280;BME280;51878;55.748;48.742;2023-05-13T23:47:52;99035.84;;;9.88;100.00
65280;BME280;51878;55.748;48.742;2023-05-13T23:52:54;98869.91;;;8.87;100.00
65280;BME280;51878;55.748;48.742;2023-05-13T23:57:57;98964.00;;;9.49;100.00
